sensor_id;sensor_type;location;lat;lon;timestamp;temperature;humidity
5792;DHT22;2922;53.482;10.006;2023-04-04T00:01:55;0.70;99.90
5792;DHT22;2922;53.482;10.006;2023-04-04T00:04:21;0.60;99.90
5792;DHT22;2922;53.482;10.006;2023-04-04T00:06:47;0.60;99.90
5792;DHT22;2922;53.482;10.006;2023-04-04T00:09:12;0.60;99.90
5792;DHT22;2922;53.482;10.006;2023-04-04T00:11:39;0.60;99.90
5792;DHT22;2922;53.482;10.006;2023-04-04T00:14:06;0.50;99.90
5792;DHT22;2922;53.482;10.006;2023-04-04T00:16:32;0.50;99.90
5792;DHT22;2922;53.482;10.006;2023-04-04T00:18:58;0.50;99.90
5792;DHT22;2922;53.482;10.006;2023-04-04T00:21:24;0.50;99.90
5792;DHT22;2922;53.482;10.006;2023-04-04T00:23:52;0.40;99.90
5792;DHT22;2922;53.482;10.006;2023-04-04T00:26:19;0.50;99.90
5792;DHT22;2922;53.482;10.006;2023-04-04T00:28:46;0.50;99.90
5792;DHT22;2922;53.482;10.006;2023-04-04T00:31:11;0.50;99.90
5792;DHT22;2922;53.482;10.006;2023-04-04T00:33:37;0.50;99.90
5792;DHT22;2922;53.482;10.006;2023-04-04T00:36:03;0.40;99.90
5792;DHT22;2922;53.482;10.006;2023-04-04T00:38:29;0.50;99.90
5792;DHT22;2922;53.482;10.006;2023-04-04T00:40:55;0.50;99.90
5792;DHT22;2922;53.482;10.006;2023-04-04T00:43:21;0.40;99.90
5792;DHT22;2922;53.482;10.006;2023-04-04T00:45:47;0.40;99.90
5792;DHT22;2922;53.482;10.006;2023-04-04T00:48:13;0.40;99.90
5792;DHT22;2922;53.482;10.006;2023-04-04T00:50:39;0.40;99.90
5792;DHT22;2922;53.482;10.006;2023-04-04T00:53:05;0.40;99.90
5792;DHT22;2922;53.482;10.006;2023-04-04T00:55:30;0.40;99.90
5792;DHT22;2922;53.482;10.006;2023-04-04T00:57:57;0.40;99.90
5792;DHT22;2922;53.482;10.006;2023-04-04T01:00:23;0.40;99.90
5792;DHT22;2922;53.482;10.006;2023-04-04T01:02:49;0.30;99.90
5792;DHT22;2922;53.482;10.006;2023-04-04T01:05:15;0.30;99.90
5792;DHT22;2922;53.482;10.006;2023-04-04T01:07:40;0.30;99.90
5792;DHT22;2922;53.482;10.006;2023-04-04T01:10:07;0.30;99.90
5792;DHT22;2922;53.482;10.006;2023-04-04T01:12:33;0.30;99.90
5792;DHT22;2922;53.482;10.006;2023-04-04T01:14:59;0.20;99.90
5792;DHT22;2922;53.482;10.006;2023-04-04T01:17:26;0.20;99.90
5792;DHT22;2922;53.482;10.006;2023-04-04T01:20:13;0.20;99.90
5792;DHT22;2922;53.482;10.006;2023-04-04T01:22:41;0.20;99.90
5792;DHT22;2922;53.482;10.006;2023-04-04T01:25:08;0.20;99.90
5792;DHT22;2922;53.482;10.006;2023-04-04T01:27:33;0.10;99.90
5792;DHT22;2922;53.482;10.006;2023-04-04T01:29:59;0.10;99.90
5792;DHT22;2922;53.482;10.006;2023-04-04T01:32:52;0.10;99.90
5792;DHT22;2922;53.482;10.006;2023-04-04T01:38:07;0.10;99.90
5792;DHT22;2922;53.482;10.006;2023-04-04T01:40:37;0.10;99.90
5792;DHT22;2922;53.482;10.006;2023-04-04T01:43:03;0.10;99.90
5792;DHT22;2922;53.482;10.006;2023-04-04T01:45:29;0.10;99.90
5792;DHT22;2922;53.482;10.006;2023-04-04T01:47:55;0.10;99.90
5792;DHT22;2922;53.482;10.006;2023-04-04T01:50:23;0.10;99.90
5792;DHT22;2922;53.482;10.006;2023-04-04T01:52:50;0.10;99.90
5792;DHT22;2922;53.482;10.006;2023-04-04T01:55:16;0.00;99.90
5792;DHT22;2922;53.482;10.006;2023-04-04T01:57:41;0.00;99.90
5792;DHT22;2922;53.482;10.006;2023-04-04T02:00:07;0.10;99.90
5792;DHT22;2922;53.482;10.006;2023-04-04T02:02:33;0.10;99.90
5792;DHT22;2922;53.482;10.006;2023-04-04T02:04:59;0.10;99.90
5792;DHT22;2922;53.482;10.006;2023-04-04T02:07:24;0.10;99.90
5792;DHT22;2922;53.482;10.006;2023-04-04T02:09:50;0.10;99.90
5792;DHT22;2922;53.482;10.006;2023-04-04T02:12:16;-0.10;99.90
5792;DHT22;2922;53.482;10.006;2023-04-04T02:14:41;0.00;99.90
5792;DHT22;2922;53.482;10.006;2023-04-04T02:17:07;0.10;99.90
5792;DHT22;2922;53.482;10.006;2023-04-04T02:19:33;0.10;99.90
5792;DHT22;2922;53.482;10.006;2023-04-04T02:21:58;0.10;99.90
5792;DHT22;2922;53.482;10.006;2023-04-04T02:24:24;0.00;99.90
5792;DHT22;2922;53.482;10.006;2023-04-04T02:26:49;0.10;99.90
5792;DHT22;2922;53.482;10.006;2023-04-04T02:29:15;0.00;99.90
5792;DHT22;2922;53.482;10.006;2023-04-04T02:31:41;0.00;99.90
5792;DHT22;2922;53.482;10.006;2023-04-04T02:34:07;0.00;99.90
5792;DHT22;2922;53.482;10.006;2023-04-04T02:36:32;0.00;99.90
5792;DHT22;2922;53.482;10.006;2023-04-04T02:38:58;0.00;99.90
5792;DHT22;2922;53.482;10.006;2023-04-04T02:41:23;0.00;99.90
5792;DHT22;2922;53.482;10.006;2023-04-04T02:43:49;0.00;99.90
5792;DHT22;2922;53.482;10.006;2023-04-04T02:46:15;0.00;99.90
5792;DHT22;2922;53.482;10.006;2023-04-04T02:48:41;0.00;99.90
5792;DHT22;2922;53.482;10.006;2023-04-04T02:51:06;0.00;99.90
5792;DHT22;2922;53.482;10.006;2023-04-04T02:53:32;0.00;99.90
5792;DHT22;2922;53.482;10.006;2023-04-04T02:55:57;-0.10;99.90
5792;DHT22;2922;53.482;10.006;2023-04-04T02:58:23;-0.10;99.90
5792;DHT22;2922;53.482;10.006;2023-04-04T03:00:55;-0.10;99.90
5792;DHT22;2922;53.482;10.006;2023-04-04T03:03:21;-0.10;99.90
5792;DHT22;2922;53.482;10.006;2023-04-04T03:05:46;-0.10;99.90
5792;DHT22;2922;53.482;10.006;2023-04-04T03:08:14;-0.10;99.90
5792;DHT22;2922;53.482;10.006;2023-04-04T03:10:39;-0.10;99.90
5792;DHT22;2922;53.482;10.006;2023-04-04T03:13:05;-0.20;99.90
5792;DHT22;2922;53.482;10.006;2023-04-04T03:15:31;-0.20;99.90
5792;DHT22;2922;53.482;10.006;2023-04-04T03:17:56;-0.20;99.90
5792;DHT22;2922;53.482;10.006;2023-04-04T03:20:23;-0.20;99.90
5792;DHT22;2922;53.482;10.006;2023-04-04T03:22:48;-0.20;99.90
5792;DHT22;2922;53.482;10.006;2023-04-04T03:25:14;-0.20;99.90
5792;DHT22;2922;53.482;10.006;2023-04-04T03:27:40;-0.10;99.90
5792;DHT22;2922;53.482;10.006;2023-04-04T03:30:09;-0.10;99.90
5792;DHT22;2922;53.482;10.006;2023-04-04T03:32:36;-0.10;99.90
5792;DHT22;2922;53.482;10.006;2023-04-04T03:35:02;-0.10;99.90
5792;DHT22;2922;53.482;10.006;2023-04-04T03:37:29;-0.10;99.90
5792;DHT22;2922;53.482;10.006;2023-04-04T03:39:54;-0.10;99.90
5792;DHT22;2922;53.482;10.006;2023-04-04T03:42:20;-0.10;99.90
5792;DHT22;2922;53.482;10.006;2023-04-04T03:44:46;-0.10;99.90
5792;DHT22;2922;53.482;10.006;2023-04-04T03:47:13;-0.10;99.90
5792;DHT22;2922;53.482;10.006;2023-04-04T03:49:38;-0.10;99.90
5792;DHT22;2922;53.482;10.006;2023-04-04T03:52:04;-0.10;99.90
5792;DHT22;2922;53.482;10.006;2023-04-04T03:54:30;-0.10;99.90
5792;DHT22;2922;53.482;10.006;2023-04-04T03:56:56;-0.10;99.90
5792;DHT22;2922;53.482;10.006;2023-04-04T03:59:22;-0.20;99.90
5792;DHT22;2922;53.482;10.006;2023-04-04T04:01:48;-0.20;99.90
5792;DHT22;2922;53.482;10.006;2023-04-04T04:04:13;-0.20;99.90
5792;DHT22;2922;53.482;10.006;2023-04-04T04:06:39;-0.20;99.90
5792;DHT22;2922;53.482;10.006;2023-04-04T04:09:04;-0.20;99.90
5792;DHT22;2922;53.482;10.006;2023-04-04T04:11:30;-0.20;99.90
5792;DHT22;2922;53.482;10.006;2023-04-04T04:13:55;-0.20;99.90
5792;DHT22;2922;53.482;10.006;2023-04-04T04:16:21;-0.20;99.90
5792;DHT22;2922;53.482;10.006;2023-04-04T04:18:47;-0.20;99.90
5792;DHT22;2922;53.482;10.006;2023-04-04T04:21:13;-0.20;99.90
5792;DHT22;2922;53.482;10.006;2023-04-04T04:23:39;-0.20;99.90
5792;DHT22;2922;53.482;10.006;2023-04-04T04:26:04;-0.20;99.90
5792;DHT22;2922;53.482;10.006;2023-04-04T04:28:30;-0.20;99.90
5792;DHT22;2922;53.482;10.006;2023-04-04T04:31:03;-0.20;99.90
5792;DHT22;2922;53.482;10.006;2023-04-04T04:33:29;-0.20;99.90
5792;DHT22;2922;53.482;10.006;2023-04-04T04:36:02;-0.20;99.90
5792;DHT22;2922;53.482;10.006;2023-04-04T04:38:28;-0.20;99.90
5792;DHT22;2922;53.482;10.006;2023-04-04T04:40:55;-0.20;99.90
5792;DHT22;2922;53.482;10.006;2023-04-04T04:43:21;-0.20;99.90
5792;DHT22;2922;53.482;10.006;2023-04-04T04:45:46;-0.20;99.90
5792;DHT22;2922;53.482;10.006;2023-04-04T04:48:12;-0.10;99.90
5792;DHT22;2922;53.482;10.006;2023-04-04T04:50:38;-0.10;99.90
5792;DHT22;2922;53.482;10.006;2023-04-04T04:53:04;-0.10;99.90
5792;DHT22;2922;53.482;10.006;2023-04-04T04:55:29;-0.10;99.90
5792;DHT22;2922;53.482;10.006;2023-04-04T04:57:55;-0.10;99.90
5792;DHT22;2922;53.482;10.006;2023-04-04T05:00:21;-0.10;99.90
5792;DHT22;2922;53.482;10.006;2023-04-04T05:02:47;-0.10;99.90
5792;DHT22;2922;53.482;10.006;2023-04-04T05:05:14;-0.10;99.90
5792;DHT22;2922;53.482;10.006;2023-04-04T05:07:44;-0.10;99.90
5792;DHT22;2922;53.482;10.006;2023-04-04T05:10:10;-0.10;99.90
5792;DHT22;2922;53.482;10.006;2023-04-04T05:12:36;-0.10;99.90
5792;DHT22;2922;53.482;10.006;2023-04-04T05:15:06;0.00;99.90
5792;DHT22;2922;53.482;10.006;2023-04-04T05:17:34;0.00;99.90
5792;DHT22;2922;53.482;10.006;2023-04-04T05:20:00;0.00;99.90
5792;DHT22;2922;53.482;10.006;2023-04-04T05:22:25;0.00;99.90
5792;DHT22;2922;53.482;10.006;2023-04-04T05:24:52;0.00;99.90
5792;DHT22;2922;53.482;10.006;2023-04-04T05:27:18;0.00;99.90
5792;DHT22;2922;53.482;10.006;2023-04-04T05:29:43;0.00;99.90
5792;DHT22;2922;53.482;10.006;2023-04-04T05:32:11;0.10;99.90
5792;DHT22;2922;53.482;10.006;2023-04-04T05:34:36;0.10;99.90
5792;DHT22;2922;53.482;10.006;2023-04-04T05:37:02;0.10;99.90
5792;DHT22;2922;53.482;10.006;2023-04-04T05:39:27;0.20;99.90
5792;DHT22;2922;53.482;10.006;2023-04-04T05:41:53;0.20;99.90
5792;DHT22;2922;53.482;10.006;2023-04-04T05:44:18;0.20;99.90
5792;DHT22;2922;53.482;10.006;2023-04-04T05:46:44;0.30;99.90
5792;DHT22;2922;53.482;10.006;2023-04-04T05:49:10;0.30;99.90
5792;DHT22;2922;53.482;10.006;2023-04-04T05:51:35;0.40;99.90
5792;DHT22;2922;53.482;10.006;2023-04-04T05:54:01;0.40;99.90
5792;DHT22;2922;53.482;10.006;2023-04-04T05:56:26;0.50;99.90
5792;DHT22;2922;53.482;10.006;2023-04-04T05:58:52;0.50;99.90
5792;DHT22;2922;53.482;10.006;2023-04-04T06:01:17;0.60;99.90
5792;DHT22;2922;53.482;10.006;2023-04-04T06:03:43;0.60;99.90
5792;DHT22;2922;53.482;10.006;2023-04-04T06:06:09;0.70;99.90
5792;DHT22;2922;53.482;10.006;2023-04-04T06:08:35;0.80;99.90
5792;DHT22;2922;53.482;10.006;2023-04-04T06:11:01;0.80;99.90
5792;DHT22;2922;53.482;10.006;2023-04-04T06:13:26;0.90;99.90
5792;DHT22;2922;53.482;10.006;2023-04-04T06:15:52;0.90;99.90
5792;DHT22;2922;53.482;10.006;2023-04-04T06:18:17;1.00;99.90
5792;DHT22;2922;53.482;10.006;2023-04-04T06:20:43;1.10;99.90
5792;DHT22;2922;53.482;10.006;2023-04-04T06:23:08;1.10;99.90
5792;DHT22;2922;53.482;10.006;2023-04-04T06:25:35;1.20;99.90
5792;DHT22;2922;53.482;10.006;2023-04-04T06:28:01;1.30;99.90
5792;DHT22;2922;53.482;10.006;2023-04-04T06:30:28;1.30;99.90
5792;DHT22;2922;53.482;10.006;2023-04-04T06:32:53;1.40;99.90
5792;DHT22;2922;53.482;10.006;2023-04-04T06:35:20;1.40;99.90
5792;DHT22;2922;53.482;10.006;2023-04-04T06:37:45;1.50;99.90
5792;DHT22;2922;53.482;10.006;2023-04-04T06:40:11;1.60;99.90
5792;DHT22;2922;53.482;10.006;2023-04-04T06:42:37;1.70;99.90
5792;DHT22;2922;53.482;10.006;2023-04-04T06:45:02;1.80;99.90
5792;DHT22;2922;53.482;10.006;2023-04-04T06:47:28;1.90;99.90
5792;DHT22;2922;53.482;10.006;2023-04-04T06:49:54;1.90;99.90
5792;DHT22;2922;53.482;10.006;2023-04-04T06:52:20;2.00;99.90
5792;DHT22;2922;53.482;10.006;2023-04-04T06:54:46;2.10;99.90
5792;DHT22;2922;53.482;10.006;2023-04-04T06:57:11;2.30;99.90
5792;DHT22;2922;53.482;10.006;2023-04-04T06:59:37;2.40;99.90
5792;DHT22;2922;53.482;10.006;2023-04-04T07:02:02;2.40;99.90
5792;DHT22;2922;53.482;10.006;2023-04-04T07:04:28;2.60;99.90
5792;DHT22;2922;53.482;10.006;2023-04-04T07:06:56;2.70;99.90
5792;DHT22;2922;53.482;10.006;2023-04-04T07:09:22;2.80;99.90
5792;DHT22;2922;53.482;10.006;2023-04-04T07:11:48;2.90;99.90
5792;DHT22;2922;53.482;10.006;2023-04-04T07:14:13;2.90;99.90
5792;DHT22;2922;53.482;10.006;2023-04-04T07:16:39;3.10;99.90
5792;DHT22;2922;53.482;10.006;2023-04-04T07:19:04;3.20;99.90
5792;DHT22;2922;53.482;10.006;2023-04-04T07:21:30;3.30;99.90
5792;DHT22;2922;53.482;10.006;2023-04-04T07:23:56;3.40;99.90
5792;DHT22;2922;53.482;10.006;2023-04-04T07:26:24;3.50;99.90
5792;DHT22;2922;53.482;10.006;2023-04-04T07:28:49;3.50;99.90
5792;DHT22;2922;53.482;10.006;2023-04-04T07:31:15;3.60;99.90
5792;DHT22;2922;53.482;10.006;2023-04-04T07:33:40;3.80;99.90
5792;DHT22;2922;53.482;10.006;2023-04-04T07:36:06;3.90;99.90
5792;DHT22;2922;53.482;10.006;2023-04-04T07:38:31;4.10;99.90
5792;DHT22;2922;53.482;10.006;2023-04-04T07:40:57;4.20;99.90
5792;DHT22;2922;53.482;10.006;2023-04-04T07:43:22;4.40;99.90
5792;DHT22;2922;53.482;10.006;2023-04-04T07:45:48;4.40;99.90
5792;DHT22;2922;53.482;10.006;2023-04-04T07:48:15;4.50;99.90
5792;DHT22;2922;53.482;10.006;2023-04-04T07:50:41;4.60;99.90
5792;DHT22;2922;53.482;10.006;2023-04-04T07:53:06;4.70;99.90
5792;DHT22;2922;53.482;10.006;2023-04-04T07:55:32;4.70;99.90
5792;DHT22;2922;53.482;10.006;2023-04-04T07:57:57;4.80;99.90
5792;DHT22;2922;53.482;10.006;2023-04-04T08:00:23;5.00;99.90
5792;DHT22;2922;53.482;10.006;2023-04-04T08:02:54;5.20;99.90
5792;DHT22;2922;53.482;10.006;2023-04-04T08:05:20;5.30;99.90
5792;DHT22;2922;53.482;10.006;2023-04-04T08:07:46;5.30;99.90
5792;DHT22;2922;53.482;10.006;2023-04-04T08:10:12;5.30;99.90
5792;DHT22;2922;53.482;10.006;2023-04-04T08:12:38;5.60;99.90
5792;DHT22;2922;53.482;10.006;2023-04-04T08:15:04;5.80;99.90
5792;DHT22;2922;53.482;10.006;2023-04-04T08:17:29;6.00;99.90
5792;DHT22;2922;53.482;10.006;2023-04-04T08:19:55;6.20;99.90
5792;DHT22;2922;53.482;10.006;2023-04-04T08:22:21;6.20;99.90
5792;DHT22;2922;53.482;10.006;2023-04-04T08:24:47;6.20;99.90
5792;DHT22;2922;53.482;10.006;2023-04-04T08:27:12;6.30;99.90
5792;DHT22;2922;53.482;10.006;2023-04-04T08:29:40;6.10;99.90
5792;DHT22;2922;53.482;10.006;2023-04-04T08:32:05;6.20;99.90
5792;DHT22;2922;53.482;10.006;2023-04-04T08:34:31;6.40;99.90
5792;DHT22;2922;53.482;10.006;2023-04-04T08:36:57;6.50;99.90
5792;DHT22;2922;53.482;10.006;2023-04-04T08:39:22;6.80;99.90
5792;DHT22;2922;53.482;10.006;2023-04-04T08:42:01;7.00;99.90
5792;DHT22;2922;53.482;10.006;2023-04-04T08:44:27;7.10;99.90
5792;DHT22;2922;53.482;10.006;2023-04-04T08:46:55;7.20;99.90
5792;DHT22;2922;53.482;10.006;2023-04-04T08:49:23;7.30;99.70
5792;DHT22;2922;53.482;10.006;2023-04-04T08:51:51;7.30;97.80
5792;DHT22;2922;53.482;10.006;2023-04-04T08:54:18;7.40;97.10
5792;DHT22;2922;53.482;10.006;2023-04-04T08:56:45;7.50;95.70
5792;DHT22;2922;53.482;10.006;2023-04-04T08:59:11;7.40;92.50
5792;DHT22;2922;53.482;10.006;2023-04-04T09:01:39;7.30;91.40
5792;DHT22;2922;53.482;10.006;2023-04-04T09:04:07;7.40;93.00
5792;DHT22;2922;53.482;10.006;2023-04-04T09:06:33;7.70;94.20
5792;DHT22;2922;53.482;10.006;2023-04-04T09:08:59;8.00;92.30
5792;DHT22;2922;53.482;10.006;2023-04-04T09:11:27;8.10;90.60
5792;DHT22;2922;53.482;10.006;2023-04-04T09:13:56;7.90;85.80
5792;DHT22;2922;53.482;10.006;2023-04-04T09:16:22;8.10;90.00
5792;DHT22;2922;53.482;10.006;2023-04-04T09:18:48;8.50;90.80
5792;DHT22;2922;53.482;10.006;2023-04-04T09:21:14;8.70;85.00
5792;DHT22;2922;53.482;10.006;2023-04-04T09:23:40;8.80;86.00
5792;DHT22;2922;53.482;10.006;2023-04-04T09:26:07;9.20;84.90
5792;DHT22;2922;53.482;10.006;2023-04-04T09:28:34;9.20;90.60
5792;DHT22;2922;53.482;10.006;2023-04-04T09:31:01;9.30;81.50
5792;DHT22;2922;53.482;10.006;2023-04-04T09:33:30;9.40;80.10
5792;DHT22;2922;53.482;10.006;2023-04-04T09:36:06;9.30;78.00
5792;DHT22;2922;53.482;10.006;2023-04-04T09:38:36;9.30;77.00
5792;DHT22;2922;53.482;10.006;2023-04-04T09:41:06;9.40;79.10
5792;DHT22;2922;53.482;10.006;2023-04-04T09:43:32;9.60;75.90
5792;DHT22;2922;53.482;10.006;2023-04-04T09:45:59;9.90;74.70
5792;DHT22;2922;53.482;10.006;2023-04-04T09:48:34;10.00;67.60
5792;DHT22;2922;53.482;10.006;2023-04-04T09:51:05;10.00;70.70
5792;DHT22;2922;53.482;10.006;2023-04-04T09:53:35;10.30;75.20
5792;DHT22;2922;53.482;10.006;2023-04-04T09:56:02;10.40;64.50
5792;DHT22;2922;53.482;10.006;2023-04-04T09:58:28;10.40;59.80
5792;DHT22;2922;53.482;10.006;2023-04-04T10:01:00;10.50;61.70
5792;DHT22;2922;53.482;10.006;2023-04-04T10:03:27;10.70;62.70
5792;DHT22;2922;53.482;10.006;2023-04-04T10:05:58;10.60;56.80
5792;DHT22;2922;53.482;10.006;2023-04-04T10:08:26;10.50;58.20
5792;DHT22;2922;53.482;10.006;2023-04-04T10:11:00;10.30;59.60
5792;DHT22;2922;53.482;10.006;2023-04-04T10:13:27;10.30;59.40
5792;DHT22;2922;53.482;10.006;2023-04-04T10:16:00;10.40;59.80
5792;DHT22;2922;53.482;10.006;2023-04-04T10:18:31;10.40;51.10
5792;DHT22;2922;53.482;10.006;2023-04-04T10:20:59;10.50;54.20
5792;DHT22;2922;53.482;10.006;2023-04-04T10:23:25;10.80;52.30
5792;DHT22;2922;53.482;10.006;2023-04-04T10:26:01;11.20;53.50
5792;DHT22;2922;53.482;10.006;2023-04-04T10:28:27;11.20;52.50
5792;DHT22;2922;53.482;10.006;2023-04-04T10:31:05;11.30;51.90
5792;DHT22;2922;53.482;10.006;2023-04-04T10:36:13;11.30;49.30
5792;DHT22;2922;53.482;10.006;2023-04-04T10:39:23;11.50;49.70
5792;DHT22;2922;53.482;10.006;2023-04-04T10:41:39;11.60;51.50
5792;DHT22;2922;53.482;10.006;2023-04-04T10:44:19;11.60;50.70
5792;DHT22;2922;53.482;10.006;2023-04-04T10:46:52;11.40;45.80
5792;DHT22;2922;53.482;10.006;2023-04-04T10:49:19;11.60;48.70
5792;DHT22;2922;53.482;10.006;2023-04-04T10:51:46;11.90;53.10
5792;DHT22;2922;53.482;10.006;2023-04-04T10:54:12;11.90;52.50
5792;DHT22;2922;53.482;10.006;2023-04-04T10:56:39;12.10;49.70
5792;DHT22;2922;53.482;10.006;2023-04-04T10:59:12;12.40;50.90
5792;DHT22;2922;53.482;10.006;2023-04-04T11:01:57;12.50;51.40
5792;DHT22;2922;53.482;10.006;2023-04-04T11:04:30;12.20;45.70
5792;DHT22;2922;53.482;10.006;2023-04-04T11:07:16;12.20;47.50
5792;DHT22;2922;53.482;10.006;2023-04-04T11:10:00;12.30;48.30
5792;DHT22;2922;53.482;10.006;2023-04-04T11:12:30;12.30;46.30
5792;DHT22;2922;53.482;10.006;2023-04-04T11:15:11;12.30;45.40
5792;DHT22;2922;53.482;10.006;2023-04-04T11:20:10;12.50;50.20
5792;DHT22;2922;53.482;10.006;2023-04-04T11:22:39;12.60;47.00
5792;DHT22;2922;53.482;10.006;2023-04-04T11:25:36;12.70;49.10
5792;DHT22;2922;53.482;10.006;2023-04-04T11:28:07;12.80;44.60
5792;DHT22;2922;53.482;10.006;2023-04-04T11:30:38;12.60;46.70
5792;DHT22;2922;53.482;10.006;2023-04-04T11:33:10;12.90;47.30
5792;DHT22;2922;53.482;10.006;2023-04-04T11:35:39;13.10;45.50
5792;DHT22;2922;53.482;10.006;2023-04-04T11:38:12;13.30;45.00
5792;DHT22;2922;53.482;10.006;2023-04-04T11:40:40;13.20;43.10
5792;DHT22;2922;53.482;10.006;2023-04-04T11:43:10;12.90;41.20
5792;DHT22;2922;53.482;10.006;2023-04-04T11:45:37;12.60;45.70
5792;DHT22;2922;53.482;10.006;2023-04-04T11:48:08;12.50;42.90
5792;DHT22;2922;53.482;10.006;2023-04-04T11:50:40;12.50;43.00
5792;DHT22;2922;53.482;10.006;2023-04-04T11:53:10;12.60;42.30
5792;DHT22;2922;53.482;10.006;2023-04-04T11:55:47;12.20;41.10
5792;DHT22;2922;53.482;10.006;2023-04-04T11:58:15;12.20;42.50
5792;DHT22;2922;53.482;10.006;2023-04-04T12:00:40;12.10;43.10
5792;DHT22;2922;53.482;10.006;2023-04-04T12:03:09;12.10;42.10
5792;DHT22;2922;53.482;10.006;2023-04-04T12:05:37;12.00;43.20
5792;DHT22;2922;53.482;10.006;2023-04-04T12:08:07;11.80;42.20
5792;DHT22;2922;53.482;10.006;2023-04-04T12:10:34;11.80;41.20
5792;DHT22;2922;53.482;10.006;2023-04-04T12:13:00;11.50;42.20
5792;DHT22;2922;53.482;10.006;2023-04-04T12:15:27;11.70;43.20
5792;DHT22;2922;53.482;10.006;2023-04-04T12:17:53;12.00;46.70
5792;DHT22;2922;53.482;10.006;2023-04-04T12:20:22;12.00;40.00
5792;DHT22;2922;53.482;10.006;2023-04-04T12:22:49;12.00;43.30
5792;DHT22;2922;53.482;10.006;2023-04-04T12:25:20;12.20;43.40
5792;DHT22;2922;53.482;10.006;2023-04-04T12:27:47;12.40;43.10
5792;DHT22;2922;53.482;10.006;2023-04-04T12:30:13;12.50;42.00
5792;DHT22;2922;53.482;10.006;2023-04-04T12:32:42;12.70;41.30
5792;DHT22;2922;53.482;10.006;2023-04-04T12:35:09;12.60;40.60
5792;DHT22;2922;53.482;10.006;2023-04-04T12:37:36;12.60;41.00
5792;DHT22;2922;53.482;10.006;2023-04-04T12:40:02;12.50;40.90
5792;DHT22;2922;53.482;10.006;2023-04-04T12:42:30;12.50;40.00
5792;DHT22;2922;53.482;10.006;2023-04-04T12:44:56;12.50;44.00
5792;DHT22;2922;53.482;10.006;2023-04-04T12:47:22;12.50;40.20
5792;DHT22;2922;53.482;10.006;2023-04-04T12:49:51;12.50;41.40
5792;DHT22;2922;53.482;10.006;2023-04-04T12:52:21;12.60;41.80
5792;DHT22;2922;53.482;10.006;2023-04-04T12:54:48;12.70;41.20
5792;DHT22;2922;53.482;10.006;2023-04-04T12:57:20;13.00;42.30
5792;DHT22;2922;53.482;10.006;2023-04-04T12:59:47;13.10;41.90
5792;DHT22;2922;53.482;10.006;2023-04-04T13:02:15;13.50;42.50
5792;DHT22;2922;53.482;10.006;2023-04-04T13:04:50;13.40;42.50
5792;DHT22;2922;53.482;10.006;2023-04-04T13:07:28;13.50;41.10
5792;DHT22;2922;53.482;10.006;2023-04-04T13:09:59;13.40;38.60
5792;DHT22;2922;53.482;10.006;2023-04-04T13:12:25;13.40;40.40
5792;DHT22;2922;53.482;10.006;2023-04-04T13:15:01;13.50;40.30
5792;DHT22;2922;53.482;10.006;2023-04-04T13:17:43;13.40;39.80
5792;DHT22;2922;53.482;10.006;2023-04-04T13:20:10;13.20;38.70
5792;DHT22;2922;53.482;10.006;2023-04-04T13:22:36;13.00;39.40
5792;DHT22;2922;53.482;10.006;2023-04-04T13:25:04;13.10;39.30
5792;DHT22;2922;53.482;10.006;2023-04-04T13:27:30;12.90;38.00
5792;DHT22;2922;53.482;10.006;2023-04-04T13:29:55;13.00;41.50
5792;DHT22;2922;53.482;10.006;2023-04-04T13:32:21;12.90;42.10
5792;DHT22;2922;53.482;10.006;2023-04-04T13:34:47;12.80;41.20
5792;DHT22;2922;53.482;10.006;2023-04-04T13:37:12;12.90;39.50
5792;DHT22;2922;53.482;10.006;2023-04-04T13:39:38;13.00;41.00
5792;DHT22;2922;53.482;10.006;2023-04-04T13:42:03;13.00;42.10
5792;DHT22;2922;53.482;10.006;2023-04-04T13:44:29;13.10;40.20
5792;DHT22;2922;53.482;10.006;2023-04-04T13:46:54;13.00;40.70
5792;DHT22;2922;53.482;10.006;2023-04-04T13:49:20;12.90;41.80
5792;DHT22;2922;53.482;10.006;2023-04-04T13:51:46;13.00;39.50
5792;DHT22;2922;53.482;10.006;2023-04-04T13:54:12;12.90;39.10
5792;DHT22;2922;53.482;10.006;2023-04-04T13:56:38;12.90;39.90
5792;DHT22;2922;53.482;10.006;2023-04-04T13:59:04;12.80;38.40
5792;DHT22;2922;53.482;10.006;2023-04-04T14:01:29;12.60;38.20
5792;DHT22;2922;53.482;10.006;2023-04-04T14:03:55;12.50;38.60
5792;DHT22;2922;53.482;10.006;2023-04-04T14:06:21;12.10;40.90
5792;DHT22;2922;53.482;10.006;2023-04-04T14:08:46;12.00;40.00
5792;DHT22;2922;53.482;10.006;2023-04-04T14:11:13;12.20;41.30
5792;DHT22;2922;53.482;10.006;2023-04-04T14:13:38;12.20;38.70
5792;DHT22;2922;53.482;10.006;2023-04-04T14:16:05;12.30;39.40
5792;DHT22;2922;53.482;10.006;2023-04-04T14:18:32;12.50;39.60
5792;DHT22;2922;53.482;10.006;2023-04-04T14:20:59;12.60;39.10
5792;DHT22;2922;53.482;10.006;2023-04-04T14:23:25;12.50;38.50
5792;DHT22;2922;53.482;10.006;2023-04-04T14:25:51;12.50;41.00
5792;DHT22;2922;53.482;10.006;2023-04-04T14:28:18;12.60;40.80
5792;DHT22;2922;53.482;10.006;2023-04-04T14:30:43;12.70;40.60
5792;DHT22;2922;53.482;10.006;2023-04-04T14:33:09;12.60;38.60
5792;DHT22;2922;53.482;10.006;2023-04-04T14:35:35;12.50;41.00
5792;DHT22;2922;53.482;10.006;2023-04-04T14:38:01;12.50;40.70
5792;DHT22;2922;53.482;10.006;2023-04-04T14:40:27;12.50;40.70
5792;DHT22;2922;53.482;10.006;2023-04-04T14:42:53;12.60;39.30
5792;DHT22;2922;53.482;10.006;2023-04-04T14:45:18;12.60;42.70
5792;DHT22;2922;53.482;10.006;2023-04-04T14:47:44;12.60;41.40
5792;DHT22;2922;53.482;10.006;2023-04-04T14:50:10;12.50;39.30
5792;DHT22;2922;53.482;10.006;2023-04-04T14:52:36;12.50;41.40
5792;DHT22;2922;53.482;10.006;2023-04-04T14:55:01;12.50;42.10
5792;DHT22;2922;53.482;10.006;2023-04-04T14:57:27;12.20;40.00
5792;DHT22;2922;53.482;10.006;2023-04-04T14:59:53;12.20;40.80
5792;DHT22;2922;53.482;10.006;2023-04-04T15:02:19;12.20;41.00
5792;DHT22;2922;53.482;10.006;2023-04-04T15:04:45;12.20;40.60
5792;DHT22;2922;53.482;10.006;2023-04-04T15:07:10;12.20;40.20
5792;DHT22;2922;53.482;10.006;2023-04-04T15:09:36;12.10;37.80
5792;DHT22;2922;53.482;10.006;2023-04-04T15:12:01;12.10;37.50
5792;DHT22;2922;53.482;10.006;2023-04-04T15:14:27;12.10;39.00
5792;DHT22;2922;53.482;10.006;2023-04-04T15:16:53;12.00;40.10
5792;DHT22;2922;53.482;10.006;2023-04-04T15:19:19;12.00;37.70
5792;DHT22;2922;53.482;10.006;2023-04-04T15:21:45;12.00;37.90
5792;DHT22;2922;53.482;10.006;2023-04-04T15:24:11;12.00;39.60
5792;DHT22;2922;53.482;10.006;2023-04-04T15:26:36;12.00;38.50
5792;DHT22;2922;53.482;10.006;2023-04-04T15:29:02;12.00;39.10
5792;DHT22;2922;53.482;10.006;2023-04-04T15:31:29;11.90;38.50
5792;DHT22;2922;53.482;10.006;2023-04-04T15:33:55;11.90;39.30
5792;DHT22;2922;53.482;10.006;2023-04-04T15:36:24;11.70;36.90
5792;DHT22;2922;53.482;10.006;2023-04-04T15:38:51;11.80;38.00
5792;DHT22;2922;53.482;10.006;2023-04-04T15:41:16;11.60;37.00
5792;DHT22;2922;53.482;10.006;2023-04-04T15:43:42;11.60;37.60
5792;DHT22;2922;53.482;10.006;2023-04-04T15:46:07;11.60;39.00
5792;DHT22;2922;53.482;10.006;2023-04-04T15:48:33;11.40;38.00
5792;DHT22;2922;53.482;10.006;2023-04-04T15:51:00;11.30;37.80
5792;DHT22;2922;53.482;10.006;2023-04-04T15:53:27;11.30;38.10
5792;DHT22;2922;53.482;10.006;2023-04-04T15:55:53;11.30;36.00
5792;DHT22;2922;53.482;10.006;2023-04-04T15:58:19;11.20;36.90
5792;DHT22;2922;53.482;10.006;2023-04-04T16:00:45;11.20;36.40